CSCL Star — VRHM7 — position and weather

sailwx.info

Track history (hours):
 
Tides and Currents Weather Stations Pressure Air Temp Water Temp Dewpoint Dewpoint Depression Visibility Wind Speed Wind Dir Waves Ship Positions

CSCL Star

Last reported at 2018-Feb-09 06:30 UTC. Time now 2018-Feb-22 19:10 UTC.
Position N 01°14' E 103°31'.
Warning: this ship's position is 13 days out of date.

Length 366 m; draft 14.2 m.

Type: Ship (hazmat cat A). MMSI: 477963800.

Date/timePositionNaut miles runAvg speedWind from/ knotsBaromVisibWave heightAir tempDewpointWater temp
2018-Feb-09 06:30N 01°14' E 103°31'612.5
2018-Feb-09 06:00N 01°20' E 103°33'0 0.0
2018-Feb-08 11:30N 01°20' E 103°33'10 6.7
2018-Feb-08 10:00N 01°11' E 103°38'23 9.2
2018-Feb-08 07:30N 01°16' E 104°01'  
2018-Feb-02 21:54N 22°20' E 114°07'1 0.2
2018-Feb-02 18:12N 22°20' E 114°08'0 0.0
2018-Feb-02 17:54N 22°20' E 114°08'0 0.0
2018-Feb-02 06:36N 22°20' E 114°08'0 0.1
2018-Feb-02 06:30N 22°20' E 114°08'253 9.6
2018-Feb-01 04:16N 23°49' E 118°25'819.3
2018-Feb-01 03:52N 23°53' E 118°32'  
Track history (hours):
 
Tides and Currents Weather Stations Pressure Air Temp Water Temp Dewpoint Dewpoint Depression Visibility Wind Speed Wind Dir Waves Ship Positions

CSCL Star

Last reported at 2018-Feb-09 06:30 UTC. Time now 2018-Feb-22 19:10 UTC.
Position N 01°14' E 103°31'.
Warning: this ship's position is 13 days out of date.

Length 366 m; draft 14.2 m.

Type: Ship (hazmat cat A). MMSI: 477963800.

Date/timePositionNaut miles runAvg speedWind from/ knotsBaromVisibWave heightAir tempDewpointWater temp
2018-Feb-09 06:30N 01°14' E 103°31'612.5
2018-Feb-09 06:00N 01°20' E 103°33'0 0.0
2018-Feb-08 11:30N 01°20' E 103°33'10 6.7
2018-Feb-08 10:00N 01°11' E 103°38'23 9.2
2018-Feb-08 07:30N 01°16' E 104°01'  
2018-Feb-02 21:54N 22°20' E 114°07'1 0.2
2018-Feb-02 18:12N 22°20' E 114°08'0 0.0
2018-Feb-02 17:54N 22°20' E 114°08'0 0.0
2018-Feb-02 06:36N 22°20' E 114°08'0 0.1
2018-Feb-02 06:30N 22°20' E 114°08'253 9.6
2018-Feb-01 04:16N 23°49' E 118°25'819.3
2018-Feb-01 03:52N 23°53' E 118°32'  

Dump ship's entire track history